This is the latest recevied weather packets stored in our database for station/object W9KHP-1. If no packets are shown the sender has not sent any weather packets the latest 1 day(s).
| Time | Temp. | Humidity | Pressure | Rain* | Wind** | Luminosity | Snow |
|---|---|---|---|---|---|---|---|
| 1778103134 | 15.56° C | 63% | 1016.7 hPa | 0 mm | - | 201 W/m² | - |
| 1778102526 | 15.56° C | 64% | 1016.8 hPa | 0 mm | - | 185 W/m² | - |
| 1778099797 | 16.11° C | 59% | 1017.5 hPa | 0 mm | - | 247 W/m² | - |
| 1778098281 | 15.56° C | 60% | 1017 hPa | 0 mm | - | 310 W/m² | - |
| 1778097371 | 17.22° C | 57% | 1017.4 hPa | 0 mm | - | 304 W/m² | - |
| 1778093728 | 16.67° C | 63% | 1017.2 hPa | 0 mm | - | 609 W/m² | - |
| 1778093122 | 16.11° C | 62% | 1017.1 hPa | 0 mm | - | 646 W/m² | - |
| 1778092819 | 15° C | 65% | 1017.3 hPa | 0 mm | - | 586 W/m² | - |
| 1778091909 | 15° C | 67% | 1017.3 hPa | 0 mm | - | 328 W/m² | - |
| 1778089786 | 15.56° C | 64% | 1016.6 hPa | 0 mm | - | 500 W/m² | - |
| 1778087666 | 15° C | 64% | 1017.2 hPa | 0 mm | - | 403 W/m² | - |
| 1778083727 | 13.89° C | 70% | 1017.4 hPa | 0 mm | - | 357 W/m² | - |
| 1778083424 | 13.89° C | 75% | 1017.2 hPa | 0 mm | - | 422 W/m² | - |
| 1778081085 | 12.78° C | 82% | 1017.5 hPa | 0 mm | - | 223 W/m² | - |
| 1778080178 | 12.78° C | 81% | 1017.2 hPa | 0 mm | - | 272 W/m² | - |
| 1778079571 | 12.78° C | 85% | 1017.1 hPa | 0 mm | - | 291 W/m² | - |
| 1778079267 | 12.78° C | 86% | 1017 hPa | 0 mm | - | 235 W/m² | - |
| 1778078965 | 12.22° C | 84% | 1016.8 hPa | 0 mm | - | 284 W/m² | - |
| 1778078661 | 12.22° C | 85% | 1016.7 hPa | 0 mm | - | 218 W/m² | - |
| 1778076848 | 10.56° C | 93% | 1016.4 hPa | 0 mm | - | 158 W/m² | - |
| 1778076546 | 10.56° C | 96% | 1016.1 hPa | 0 mm | - | 241 W/m² | - |
| 1778075636 | 10° C | 99% | 1016.2 hPa | 0 mm | - | 100 W/m² | - |
| 1778075029 | 8.89° C | 99% | 1016.2 hPa | 0 mm | - | 156 W/m² | - |
| 1778072908 | 9.44° C | 99% | 1015.8 hPa | 0 mm | - | 102 W/m² | - |
| 1778072302 | 8.89° C | 99% | 1015.7 hPa | 0 mm | - | 111 W/m² | - |
* Rain latest hour (hover to see other rain measurements)
** Current wind speed in m/s (hover to see current wind gust speed)